Riverdale, North Dakota
Current Conditions -  °F | °C
As of 1:15 AM on Friday 28 Nov 2014 (Local Time) from KHZE Reporting Station
Clear Clear  
Wind Chill: -3°   Ceiling: Unl
Heat Index:   Visibility: 10mi
Dew Point:   Wind: 6mph
Humidity: 85%   Direction: 80°E
Pressure: 29.83"   Gusts: NA
Location:  47.5°N, 101.37°W
Report Text: KHZE 280715Z AUTO 08005KT 10SM CLR M14/M16 A2983 RMK AO2
Loading
Personal Weather Stations






























Interactive Weather Map New forecast layout! Learn more

10-Day Weather Forecast

Advertisements
Track Severe Weather on mobile